首页
METAR-TAF:

METAR-TAF

机场 :

Needles Airport

Needles, 加利福尼亚州, 美国

纬度: 34-45-58N, 经度: 114-37-24W, 海拔: 300米

当前天气观测

该预报发布于1小时和0分钟前的10:56 UTC
风速5节,风向西
温度 23°C
湿度 20%
气压 1011 hPa
能見度: 16.1公里
天空无云

METAR: KEED 271056Z AUTO 27005KT 10SM CLR 23/M01 A2985 RMK AO2 SLP077 T02281011

时间: 04:56 (11:56 UTC)

预报

该预报发布于36分钟前的11:20 UTC
预报有效从27日的 12点(UTC)到 28日的 12点(UTC)
风速6节,风向多变
能見度: 10公里
天空无云
从 27日的 1600点(UTC)
风速7节,风向
能見度: 10公里
少量云层高于15000英尺
从 27日的 2000点(UTC)
风速11节,风向南转西南
能見度: 10公里
天空无云
从 28日的 0400点(UTC)
风速7节,风向西转西南
能見度: 10公里
天空无云
从 28日的 1000点(UTC)
风速5节,风向多变
能見度: 10公里
天空无云

TAF: KEED 271120Z 2712/2812 VRB06KT P6SM SKC FM271600 17007KT P6SM FEW150 FM272000 21011KT P6SM SKC FM280400 24007KT P6SM SKC FM281000 VRB05KT P6SM SKC

超过4000个机场的气象观测和天气预报(METAR&TAF报告)。

可查询的气象台以黄色和红色小点在地图上表示。

将鼠标移到小点上方,可查看气象台名称。

然后点击查看天气观测和预报。

如需切换地图:点击带黑十字的绿色按钮放大地图;点击带横线的绿色按钮缩小地图;或者点击绿色箭头查看邻近地区的地图。


METAR-TAF: